sensor_id;sensor_type;location;lat;lon;timestamp;temperature;humidity
12309;DHT22;6217;48.150;17.142;2023-08-30T00:03:46;17.90;92.40
12309;DHT22;6217;48.150;17.142;2023-08-30T00:07:51;18.00;92.40
12309;DHT22;6217;48.150;17.142;2023-08-30T00:11:58;18.00;92.30
12309;DHT22;6217;48.150;17.142;2023-08-30T00:16:04;18.00;92.30
12309;DHT22;6217;48.150;17.142;2023-08-30T00:20:10;17.90;92.40
12309;DHT22;6217;48.150;17.142;2023-08-30T00:24:17;17.90;92.40
12309;DHT22;6217;48.150;17.142;2023-08-30T00:28:23;17.90;92.30
12309;DHT22;6217;48.150;17.142;2023-08-30T00:32:29;17.90;92.30
12309;DHT22;6217;48.150;17.142;2023-08-30T00:36:35;18.00;92.20
12309;DHT22;6217;48.150;17.142;2023-08-30T00:40:41;18.00;92.10
12309;DHT22;6217;48.150;17.142;2023-08-30T00:44:49;17.90;92.20
12309;DHT22;6217;48.150;17.142;2023-08-30T00:48:55;17.90;92.20
12309;DHT22;6217;48.150;17.142;2023-08-30T00:53:03;17.90;92.20
12309;DHT22;6217;48.150;17.142;2023-08-30T00:57:12;17.90;92.10
12309;DHT22;6217;48.150;17.142;2023-08-30T01:01:18;17.90;92.20
12309;DHT22;6217;48.150;17.142;2023-08-30T01:05:24;17.90;92.10
12309;DHT22;6217;48.150;17.142;2023-08-30T01:09:30;17.80;92.30
12309;DHT22;6217;48.150;17.142;2023-08-30T01:13:42;17.90;92.20
12309;DHT22;6217;48.150;17.142;2023-08-30T01:17:52;17.90;92.50
12309;DHT22;6217;48.150;17.142;2023-08-30T01:22:09;17.90;92.40
12309;DHT22;6217;48.150;17.142;2023-08-30T01:26:38;17.80;92.60
12309;DHT22;6217;48.150;17.142;2023-08-30T01:30:48;17.80;92.60
12309;DHT22;6217;48.150;17.142;2023-08-30T01:34:55;17.80;92.60
12309;DHT22;6217;48.150;17.142;2023-08-30T01:39:01;17.90;92.60
12309;DHT22;6217;48.150;17.142;2023-08-30T01:43:08;17.90;92.50
12309;DHT22;6217;48.150;17.142;2023-08-30T01:47:17;18.00;92.50
12309;DHT22;6217;48.150;17.142;2023-08-30T01:51:24;17.90;92.50
12309;DHT22;6217;48.150;17.142;2023-08-30T01:55:32;17.90;92.50
12309;DHT22;6217;48.150;17.142;2023-08-30T01:59:38;17.90;92.50
12309;DHT22;6217;48.150;17.142;2023-08-30T02:03:44;17.90;92.50
12309;DHT22;6217;48.150;17.142;2023-08-30T02:07:55;17.90;92.50
12309;DHT22;6217;48.150;17.142;2023-08-30T02:12:08;17.90;92.50
12309;DHT22;6217;48.150;17.142;2023-08-30T02:16:18;17.90;92.50
12309;DHT22;6217;48.150;17.142;2023-08-30T02:20:24;18.00;92.50
12309;DHT22;6217;48.150;17.142;2023-08-30T02:24:30;18.00;92.40
12309;DHT22;6217;48.150;17.142;2023-08-30T02:28:36;18.00;92.50
12309;DHT22;6217;48.150;17.142;2023-08-30T02:32:45;18.00;92.40
12309;DHT22;6217;48.150;17.142;2023-08-30T02:36:51;18.00;92.50
12309;DHT22;6217;48.150;17.142;2023-08-30T02:40:57;18.00;92.40
12309;DHT22;6217;48.150;17.142;2023-08-30T02:45:03;18.00;92.40
12309;DHT22;6217;48.150;17.142;2023-08-30T02:49:09;17.90;92.50
12309;DHT22;6217;48.150;17.142;2023-08-30T02:53:16;18.00;92.40
12309;DHT22;6217;48.150;17.142;2023-08-30T02:57:22;18.00;92.40
12309;DHT22;6217;48.150;17.142;2023-08-30T03:01:29;18.00;92.40
12309;DHT22;6217;48.150;17.142;2023-08-30T03:05:36;18.00;92.40
12309;DHT22;6217;48.150;17.142;2023-08-30T03:09:44;18.00;92.40
12309;DHT22;6217;48.150;17.142;2023-08-30T03:13:50;18.00;92.40
12309;DHT22;6217;48.150;17.142;2023-08-30T03:17:56;18.00;92.40
12309;DHT22;6217;48.150;17.142;2023-08-30T03:22:03;18.00;92.40
12309;DHT22;6217;48.150;17.142;2023-08-30T03:26:12;18.00;92.40
12309;DHT22;6217;48.150;17.142;2023-08-30T03:30:19;18.10;92.30
12309;DHT22;6217;48.150;17.142;2023-08-30T03:34:25;18.10;92.30
12309;DHT22;6217;48.150;17.142;2023-08-30T03:38:31;18.10;92.20
12309;DHT22;6217;48.150;17.142;2023-08-30T03:42:37;18.10;92.30
12309;DHT22;6217;48.150;17.142;2023-08-30T03:46:43;18.10;92.10
12309;DHT22;6217;48.150;17.142;2023-08-30T03:50:49;18.00;92.20
12309;DHT22;6217;48.150;17.142;2023-08-30T03:54:55;18.10;92.20
12309;DHT22;6217;48.150;17.142;2023-08-30T03:59:01;18.00;92.20
12309;DHT22;6217;48.150;17.142;2023-08-30T04:03:08;18.00;92.20
12309;DHT22;6217;48.150;17.142;2023-08-30T04:07:15;18.10;92.20
12309;DHT22;6217;48.150;17.142;2023-08-30T04:11:22;18.10;92.50
12309;DHT22;6217;48.150;17.142;2023-08-30T04:15:29;18.10;92.10
12309;DHT22;6217;48.150;17.142;2023-08-30T04:19:38;18.10;92.10
12309;DHT22;6217;48.150;17.142;2023-08-30T04:23:47;18.10;92.20
12309;DHT22;6217;48.150;17.142;2023-08-30T04:27:53;18.00;92.20
12309;DHT22;6217;48.150;17.142;2023-08-30T04:31:59;18.00;92.20
12309;DHT22;6217;48.150;17.142;2023-08-30T04:36:06;18.00;92.30
12309;DHT22;6217;48.150;17.142;2023-08-30T04:40:13;18.00;92.30
12309;DHT22;6217;48.150;17.142;2023-08-30T04:44:19;18.10;92.30
12309;DHT22;6217;48.150;17.142;2023-08-30T04:48:30;18.10;92.20
12309;DHT22;6217;48.150;17.142;2023-08-30T04:52:36;18.10;92.30
12309;DHT22;6217;48.150;17.142;2023-08-30T04:56:42;18.10;92.30
12309;DHT22;6217;48.150;17.142;2023-08-30T05:00:49;18.10;92.30
12309;DHT22;6217;48.150;17.142;2023-08-30T05:04:55;18.20;92.20
12309;DHT22;6217;48.150;17.142;2023-08-30T05:09:02;18.20;92.10
12309;DHT22;6217;48.150;17.142;2023-08-30T05:13:08;18.20;92.20
12309;DHT22;6217;48.150;17.142;2023-08-30T05:17:15;18.30;92.30
12309;DHT22;6217;48.150;17.142;2023-08-30T05:21:21;18.30;92.30
12309;DHT22;6217;48.150;17.142;2023-08-30T05:25:27;18.40;92.20
12309;DHT22;6217;48.150;17.142;2023-08-30T05:29:32;18.40;92.10
12309;DHT22;6217;48.150;17.142;2023-08-30T05:33:38;18.60;92.10
12309;DHT22;6217;48.150;17.142;2023-08-30T05:38:11;18.70;92.00
12309;DHT22;6217;48.150;17.142;2023-08-30T05:42:35;18.80;91.90
12309;DHT22;6217;48.150;17.142;2023-08-30T05:46:40;18.80;91.70
12309;DHT22;6217;48.150;17.142;2023-08-30T05:50:47;18.80;91.50
12309;DHT22;6217;48.150;17.142;2023-08-30T05:54:53;18.80;91.50
12309;DHT22;6217;48.150;17.142;2023-08-30T05:58:59;18.90;91.40
12309;DHT22;6217;48.150;17.142;2023-08-30T06:03:05;19.00;91.30
12309;DHT22;6217;48.150;17.142;2023-08-30T06:07:11;19.10;91.20
12309;DHT22;6217;48.150;17.142;2023-08-30T06:11:18;19.20;91.20
12309;DHT22;6217;48.150;17.142;2023-08-30T06:15:24;19.30;91.00
12309;DHT22;6217;48.150;17.142;2023-08-30T06:19:30;19.60;90.90
12309;DHT22;6217;48.150;17.142;2023-08-30T06:23:38;20.00;90.50
12309;DHT22;6217;48.150;17.142;2023-08-30T06:27:55;20.30;90.00
12309;DHT22;6217;48.150;17.142;2023-08-30T06:32:03;20.40;89.20
12309;DHT22;6217;48.150;17.142;2023-08-30T06:36:09;20.40;89.00
12309;DHT22;6217;48.150;17.142;2023-08-30T06:40:17;20.40;88.80
12309;DHT22;6217;48.150;17.142;2023-08-30T06:44:23;20.50;88.30
12309;DHT22;6217;48.150;17.142;2023-08-30T06:48:29;20.50;88.30
12309;DHT22;6217;48.150;17.142;2023-08-30T06:52:35;20.50;87.30
12309;DHT22;6217;48.150;17.142;2023-08-30T06:56:56;20.30;86.80
12309;DHT22;6217;48.150;17.142;2023-08-30T07:01:05;20.30;86.90
12309;DHT22;6217;48.150;17.142;2023-08-30T07:05:12;20.30;86.90
12309;DHT22;6217;48.150;17.142;2023-08-30T07:09:18;20.50;86.90
12309;DHT22;6217;48.150;17.142;2023-08-30T07:13:24;20.60;86.40
12309;DHT22;6217;48.150;17.142;2023-08-30T07:17:30;20.70;85.90
12309;DHT22;6217;48.150;17.142;2023-08-30T07:21:36;20.80;85.90
12309;DHT22;6217;48.150;17.142;2023-08-30T07:25:44;20.80;85.20
12309;DHT22;6217;48.150;17.142;2023-08-30T07:29:49;20.90;85.30
12309;DHT22;6217;48.150;17.142;2023-08-30T07:33:55;20.80;85.30
12309;DHT22;6217;48.150;17.142;2023-08-30T07:38:03;20.80;85.10
12309;DHT22;6217;48.150;17.142;2023-08-30T07:42:09;20.80;85.20
12309;DHT22;6217;48.150;17.142;2023-08-30T07:46:15;20.90;84.90
12309;DHT22;6217;48.150;17.142;2023-08-30T07:50:21;20.90;84.70
12309;DHT22;6217;48.150;17.142;2023-08-30T07:54:27;21.00;84.50
12309;DHT22;6217;48.150;17.142;2023-08-30T07:58:33;21.10;84.30
12309;DHT22;6217;48.150;17.142;2023-08-30T08:02:40;21.10;83.80
12309;DHT22;6217;48.150;17.142;2023-08-30T08:06:47;21.10;83.70
12309;DHT22;6217;48.150;17.142;2023-08-30T08:10:53;21.10;83.30
12309;DHT22;6217;48.150;17.142;2023-08-30T08:14:58;21.00;83.30
12309;DHT22;6217;48.150;17.142;2023-08-30T08:19:04;21.10;83.20
12309;DHT22;6217;48.150;17.142;2023-08-30T08:23:11;21.10;82.30
12309;DHT22;6217;48.150;17.142;2023-08-30T08:27:17;20.90;82.50
12309;DHT22;6217;48.150;17.142;2023-08-30T08:31:23;20.70;82.30
12309;DHT22;6217;48.150;17.142;2023-08-30T08:35:29;20.80;82.70
12309;DHT22;6217;48.150;17.142;2023-08-30T08:39:35;20.70;82.20
12309;DHT22;6217;48.150;17.142;2023-08-30T08:43:42;20.80;82.50
12309;DHT22;6217;48.150;17.142;2023-08-30T08:47:48;20.80;82.50
12309;DHT22;6217;48.150;17.142;2023-08-30T08:51:55;20.70;81.80
12309;DHT22;6217;48.150;17.142;2023-08-30T08:56:01;20.70;82.30
12309;DHT22;6217;48.150;17.142;2023-08-30T09:00:08;20.60;82.30
12309;DHT22;6217;48.150;17.142;2023-08-30T09:04:14;20.60;82.30
12309;DHT22;6217;48.150;17.142;2023-08-30T09:08:21;20.50;82.30
12309;DHT22;6217;48.150;17.142;2023-08-30T09:12:27;20.60;82.60
12309;DHT22;6217;48.150;17.142;2023-08-30T09:16:33;20.70;82.20
12309;DHT22;6217;48.150;17.142;2023-08-30T09:20:39;20.70;82.10
12309;DHT22;6217;48.150;17.142;2023-08-30T09:24:45;20.70;82.00
12309;DHT22;6217;48.150;17.142;2023-08-30T09:28:51;20.80;82.10
12309;DHT22;6217;48.150;17.142;2023-08-30T09:33:03;20.90;82.10
12309;DHT22;6217;48.150;17.142;2023-08-30T09:37:19;21.00;81.60
12309;DHT22;6217;48.150;17.142;2023-08-30T09:41:28;21.20;81.20
12309;DHT22;6217;48.150;17.142;2023-08-30T09:45:34;21.40;81.00
12309;DHT22;6217;48.150;17.142;2023-08-30T09:49:44;21.60;80.20
12309;DHT22;6217;48.150;17.142;2023-08-30T09:53:58;21.70;79.50
12309;DHT22;6217;48.150;17.142;2023-08-30T09:58:10;21.60;79.00
12309;DHT22;6217;48.150;17.142;2023-08-30T10:02:17;21.70;78.80
12309;DHT22;6217;48.150;17.142;2023-08-30T10:06:24;21.70;78.70
12309;DHT22;6217;48.150;17.142;2023-08-30T10:10:31;21.80;78.50
12309;DHT22;6217;48.150;17.142;2023-08-30T10:14:37;22.00;78.20
12309;DHT22;6217;48.150;17.142;2023-08-30T10:18:47;22.10;77.70
12309;DHT22;6217;48.150;17.142;2023-08-30T10:22:57;22.20;77.70
12309;DHT22;6217;48.150;17.142;2023-08-30T10:27:05;22.20;76.80
12309;DHT22;6217;48.150;17.142;2023-08-30T10:31:14;22.20;77.00
12309;DHT22;6217;48.150;17.142;2023-08-30T10:35:19;22.20;76.90
12309;DHT22;6217;48.150;17.142;2023-08-30T10:39:35;22.20;76.70
12309;DHT22;6217;48.150;17.142;2023-08-30T10:43:52;22.30;76.10
12309;DHT22;6217;48.150;17.142;2023-08-30T10:48:00;22.20;75.60
12309;DHT22;6217;48.150;17.142;2023-08-30T10:52:12;22.10;76.60
12309;DHT22;6217;48.150;17.142;2023-08-30T10:56:18;22.10;76.00
12309;DHT22;6217;48.150;17.142;2023-08-30T11:00:32;22.20;76.30
12309;DHT22;6217;48.150;17.142;2023-08-30T11:04:39;22.30;75.80
12309;DHT22;6217;48.150;17.142;2023-08-30T11:08:47;22.30;75.70
12309;DHT22;6217;48.150;17.142;2023-08-30T11:12:56;22.20;75.60
12309;DHT22;6217;48.150;17.142;2023-08-30T11:17:02;22.20;75.20
12309;DHT22;6217;48.150;17.142;2023-08-30T11:21:08;22.20;75.10
12309;DHT22;6217;48.150;17.142;2023-08-30T11:25:15;22.20;75.30
12309;DHT22;6217;48.150;17.142;2023-08-30T11:29:22;22.20;75.10
12309;DHT22;6217;48.150;17.142;2023-08-30T11:33:28;22.20;75.10
12309;DHT22;6217;48.150;17.142;2023-08-30T11:37:34;22.20;74.50
12309;DHT22;6217;48.150;17.142;2023-08-30T11:41:40;22.20;74.00
12309;DHT22;6217;48.150;17.142;2023-08-30T11:45:46;22.20;74.00
12309;DHT22;6217;48.150;17.142;2023-08-30T11:49:52;22.30;74.40
12309;DHT22;6217;48.150;17.142;2023-08-30T11:54:00;22.30;74.40
12309;DHT22;6217;48.150;17.142;2023-08-30T11:58:08;22.40;74.00
12309;DHT22;6217;48.150;17.142;2023-08-30T12:02:16;22.50;74.00
12309;DHT22;6217;48.150;17.142;2023-08-30T12:06:23;22.70;73.90
12309;DHT22;6217;48.150;17.142;2023-08-30T12:10:29;22.70;73.40
12309;DHT22;6217;48.150;17.142;2023-08-30T12:14:36;22.70;73.20
12309;DHT22;6217;48.150;17.142;2023-08-30T12:18:42;22.70;73.00
12309;DHT22;6217;48.150;17.142;2023-08-30T12:22:49;22.60;72.90
12309;DHT22;6217;48.150;17.142;2023-08-30T12:26:56;22.60;72.70
12309;DHT22;6217;48.150;17.142;2023-08-30T12:31:03;22.60;72.70
12309;DHT22;6217;48.150;17.142;2023-08-30T12:35:12;22.40;72.20
12309;DHT22;6217;48.150;17.142;2023-08-30T12:39:18;22.20;72.90
12309;DHT22;6217;48.150;17.142;2023-08-30T12:43:24;22.10;73.30
12309;DHT22;6217;48.150;17.142;2023-08-30T12:47:30;21.90;73.40
12309;DHT22;6217;48.150;17.142;2023-08-30T12:51:36;21.70;73.50
12309;DHT22;6217;48.150;17.142;2023-08-30T12:55:42;21.70;73.70
12309;DHT22;6217;48.150;17.142;2023-08-30T12:59:48;21.80;73.80
12309;DHT22;6217;48.150;17.142;2023-08-30T13:03:54;22.00;73.50
12309;DHT22;6217;48.150;17.142;2023-08-30T13:08:00;22.10;73.00
12309;DHT22;6217;48.150;17.142;2023-08-30T13:12:06;22.20;73.00
12309;DHT22;6217;48.150;17.142;2023-08-30T13:16:12;22.30;72.80
12309;DHT22;6217;48.150;17.142;2023-08-30T13:20:18;22.40;72.50
12309;DHT22;6217;48.150;17.142;2023-08-30T13:24:24;22.30;72.20
12309;DHT22;6217;48.150;17.142;2023-08-30T13:28:30;22.20;71.80
12309;DHT22;6217;48.150;17.142;2023-08-30T13:32:36;22.20;72.10
12309;DHT22;6217;48.150;17.142;2023-08-30T13:36:42;22.20;72.00
12309;DHT22;6217;48.150;17.142;2023-08-30T13:40:48;22.20;71.90
12309;DHT22;6217;48.150;17.142;2023-08-30T13:44:54;22.20;72.00
12309;DHT22;6217;48.150;17.142;2023-08-30T13:49:00;22.30;72.00
12309;DHT22;6217;48.150;17.142;2023-08-30T13:53:06;22.30;71.80
12309;DHT22;6217;48.150;17.142;2023-08-30T13:57:11;22.30;72.00
12309;DHT22;6217;48.150;17.142;2023-08-30T14:01:17;22.40;71.80
12309;DHT22;6217;48.150;17.142;2023-08-30T14:05:23;22.50;71.60
12309;DHT22;6217;48.150;17.142;2023-08-30T14:09:29;22.50;71.40
12309;DHT22;6217;48.150;17.142;2023-08-30T14:13:35;22.60;71.40
12309;DHT22;6217;48.150;17.142;2023-08-30T14:17:41;22.70;71.20
12309;DHT22;6217;48.150;17.142;2023-08-30T14:21:47;22.60;70.80
12309;DHT22;6217;48.150;17.142;2023-08-30T14:26:03;22.60;71.10
12309;DHT22;6217;48.150;17.142;2023-08-30T14:30:16;22.60;70.90
12309;DHT22;6217;48.150;17.142;2023-08-30T14:34:22;22.60;71.00
12309;DHT22;6217;48.150;17.142;2023-08-30T14:38:28;22.60;70.70
12309;DHT22;6217;48.150;17.142;2023-08-30T14:42:35;22.60;71.10
12309;DHT22;6217;48.150;17.142;2023-08-30T14:46:40;22.70;71.20
12309;DHT22;6217;48.150;17.142;2023-08-30T14:50:50;22.70;70.70
12309;DHT22;6217;48.150;17.142;2023-08-30T14:54:56;22.60;70.90
12309;DHT22;6217;48.150;17.142;2023-08-30T14:59:02;22.60;70.90
12309;DHT22;6217;48.150;17.142;2023-08-30T15:03:08;22.60;71.00
12309;DHT22;6217;48.150;17.142;2023-08-30T15:07:14;22.50;71.00
12309;DHT22;6217;48.150;17.142;2023-08-30T15:11:20;22.40;71.20
12309;DHT22;6217;48.150;17.142;2023-08-30T15:15:26;22.30;71.00
12309;DHT22;6217;48.150;17.142;2023-08-30T15:19:32;22.30;71.10
12309;DHT22;6217;48.150;17.142;2023-08-30T15:23:38;22.30;71.20
12309;DHT22;6217;48.150;17.142;2023-08-30T15:27:44;22.30;71.50
12309;DHT22;6217;48.150;17.142;2023-08-30T15:31:50;22.20;71.70
12309;DHT22;6217;48.150;17.142;2023-08-30T15:35:58;22.20;71.90
12309;DHT22;6217;48.150;17.142;2023-08-30T15:40:05;22.10;72.00
12309;DHT22;6217;48.150;17.142;2023-08-30T15:44:14;22.00;72.20
12309;DHT22;6217;48.150;17.142;2023-08-30T15:48:20;22.00;72.40
12309;DHT22;6217;48.150;17.142;2023-08-30T15:52:27;22.10;72.60
12309;DHT22;6217;48.150;17.142;2023-08-30T15:56:32;22.10;72.70
12309;DHT22;6217;48.150;17.142;2023-08-30T16:00:38;22.10;72.50
12309;DHT22;6217;48.150;17.142;2023-08-30T16:04:46;21.90;72.30
12309;DHT22;6217;48.150;17.142;2023-08-30T16:08:52;21.90;72.50
12309;DHT22;6217;48.150;17.142;2023-08-30T16:12:58;21.90;72.60
12309;DHT22;6217;48.150;17.142;2023-08-30T16:17:05;21.80;72.70
12309;DHT22;6217;48.150;17.142;2023-08-30T16:21:11;21.80;72.90
12309;DHT22;6217;48.150;17.142;2023-08-30T16:25:17;21.70;72.90
12309;DHT22;6217;48.150;17.142;2023-08-30T16:29:24;21.70;73.00
12309;DHT22;6217;48.150;17.142;2023-08-30T16:33:30;21.60;73.00
12309;DHT22;6217;48.150;17.142;2023-08-30T16:37:36;21.60;72.90
12309;DHT22;6217;48.150;17.142;2023-08-30T16:41:42;21.60;73.10
12309;DHT22;6217;48.150;17.142;2023-08-30T16:45:48;21.40;73.20
12309;DHT22;6217;48.150;17.142;2023-08-30T16:49:54;21.40;73.50
12309;DHT22;6217;48.150;17.142;2023-08-30T16:54:00;21.30;73.60
12309;DHT22;6217;48.150;17.142;2023-08-30T16:58:06;21.30;73.80
12309;DHT22;6217;48.150;17.142;2023-08-30T17:02:12;21.30;74.00
12309;DHT22;6217;48.150;17.142;2023-08-30T17:06:18;21.20;74.10
12309;DHT22;6217;48.150;17.142;2023-08-30T17:10:24;21.20;74.30
12309;DHT22;6217;48.150;17.142;2023-08-30T17:14:30;21.10;74.60
12309;DHT22;6217;48.150;17.142;2023-08-30T17:18:38;21.10;74.90
12309;DHT22;6217;48.150;17.142;2023-08-30T17:22:46;21.00;75.00
12309;DHT22;6217;48.150;17.142;2023-08-30T17:26:52;21.00;75.20
12309;DHT22;6217;48.150;17.142;2023-08-30T17:30:58;21.00;75.30
12309;DHT22;6217;48.150;17.142;2023-08-30T17:35:04;21.00;75.50
12309;DHT22;6217;48.150;17.142;2023-08-30T17:39:10;20.90;75.60
12309;DHT22;6217;48.150;17.142;2023-08-30T17:43:16;20.90;75.60
12309;DHT22;6217;48.150;17.142;2023-08-30T17:47:22;20.80;75.80
12309;DHT22;6217;48.150;17.142;2023-08-30T17:51:28;20.80;76.00
12309;DHT22;6217;48.150;17.142;2023-08-30T17:55:34;20.80;76.10
12309;DHT22;6217;48.150;17.142;2023-08-30T17:59:40;20.70;76.20
12309;DHT22;6217;48.150;17.142;2023-08-30T18:03:46;20.60;76.30
12309;DHT22;6217;48.150;17.142;2023-08-30T18:07:52;20.60;76.40
12309;DHT22;6217;48.150;17.142;2023-08-30T18:12:03;20.60;76.40
12309;DHT22;6217;48.150;17.142;2023-08-30T18:16:11;20.60;76.40
12309;DHT22;6217;48.150;17.142;2023-08-30T18:20:18;20.60;76.50
12309;DHT22;6217;48.150;17.142;2023-08-30T18:24:24;20.50;76.50
12309;DHT22;6217;48.150;17.142;2023-08-30T18:28:29;20.50;76.60
12309;DHT22;6217;48.150;17.142;2023-08-30T18:32:36;20.40;76.80
12309;DHT22;6217;48.150;17.142;2023-08-30T18:36:45;20.40;77.00
12309;DHT22;6217;48.150;17.142;2023-08-30T18:40:51;20.30;76.90
12309;DHT22;6217;48.150;17.142;2023-08-30T18:44:57;20.30;77.10
12309;DHT22;6217;48.150;17.142;2023-08-30T18:49:03;20.30;77.30
12309;DHT22;6217;48.150;17.142;2023-08-30T18:53:09;20.30;77.60
12309;DHT22;6217;48.150;17.142;2023-08-30T18:57:18;20.20;77.90
12309;DHT22;6217;48.150;17.142;2023-08-30T19:01:24;20.20;78.00
12309;DHT22;6217;48.150;17.142;2023-08-30T19:05:34;20.20;78.00
12309;DHT22;6217;48.150;17.142;2023-08-30T19:09:41;20.20;78.10
12309;DHT22;6217;48.150;17.142;2023-08-30T19:13:47;20.20;78.30
12309;DHT22;6217;48.150;17.142;2023-08-30T19:17:53;20.10;78.30
12309;DHT22;6217;48.150;17.142;2023-08-30T19:21:59;20.10;78.40
12309;DHT22;6217;48.150;17.142;2023-08-30T19:26:05;20.00;78.60
12309;DHT22;6217;48.150;17.142;2023-08-30T19:30:12;20.00;78.80
12309;DHT22;6217;48.150;17.142;2023-08-30T19:34:18;20.00;79.00
12309;DHT22;6217;48.150;17.142;2023-08-30T19:38:24;19.90;79.10
12309;DHT22;6217;48.150;17.142;2023-08-30T19:42:30;19.90;79.30
12309;DHT22;6217;48.150;17.142;2023-08-30T19:46:37;19.80;79.50
12309;DHT22;6217;48.150;17.142;2023-08-30T19:50:51;19.80;79.80
12309;DHT22;6217;48.150;17.142;2023-08-30T19:54:57;19.70;80.10
12309;DHT22;6217;48.150;17.142;2023-08-30T19:59:03;19.60;80.10
12309;DHT22;6217;48.150;17.142;2023-08-30T20:03:09;19.60;80.10
12309;DHT22;6217;48.150;17.142;2023-08-30T20:07:15;19.60;80.20
12309;DHT22;6217;48.150;17.142;2023-08-30T20:11:21;19.60;80.20
12309;DHT22;6217;48.150;17.142;2023-08-30T20:15:27;19.60;80.90
12309;DHT22;6217;48.150;17.142;2023-08-30T20:19:35;19.50;80.40
12309;DHT22;6217;48.150;17.142;2023-08-30T20:23:42;19.50;80.50
12309;DHT22;6217;48.150;17.142;2023-08-30T20:27:48;19.50;80.70
12309;DHT22;6217;48.150;17.142;2023-08-30T20:31:54;19.50;80.70
12309;DHT22;6217;48.150;17.142;2023-08-30T20:36:04;19.40;80.80
12309;DHT22;6217;48.150;17.142;2023-08-30T20:40:11;19.40;80.80
12309;DHT22;6217;48.150;17.142;2023-08-30T20:44:17;19.40;80.90
12309;DHT22;6217;48.150;17.142;2023-08-30T20:48:23;19.30;80.90
12309;DHT22;6217;48.150;17.142;2023-08-30T20:52:29;19.30;81.00
12309;DHT22;6217;48.150;17.142;2023-08-30T20:56:35;19.20;81.20
12309;DHT22;6217;48.150;17.142;2023-08-30T21:00:41;19.20;81.30
12309;DHT22;6217;48.150;17.142;2023-08-30T21:04:48;19.20;81.50
12309;DHT22;6217;48.150;17.142;2023-08-30T21:08:54;19.20;81.70
12309;DHT22;6217;48.150;17.142;2023-08-30T21:13:00;19.10;81.80
12309;DHT22;6217;48.150;17.142;2023-08-30T21:17:06;19.10;81.70
12309;DHT22;6217;48.150;17.142;2023-08-30T21:21:12;19.00;81.80
12309;DHT22;6217;48.150;17.142;2023-08-30T21:25:18;19.00;81.80
12309;DHT22;6217;48.150;17.142;2023-08-30T21:29:25;19.00;81.80
12309;DHT22;6217;48.150;17.142;2023-08-30T21:33:31;19.00;82.00
12309;DHT22;6217;48.150;17.142;2023-08-30T21:37:37;18.90;82.20
12309;DHT22;6217;48.150;17.142;2023-08-30T21:41:43;18.90;82.40
12309;DHT22;6217;48.150;17.142;2023-08-30T21:45:49;18.90;82.40
12309;DHT22;6217;48.150;17.142;2023-08-30T21:49:58;18.90;82.30
12309;DHT22;6217;48.150;17.142;2023-08-30T21:54:04;18.80;82.30
12309;DHT22;6217;48.150;17.142;2023-08-30T21:58:11;18.80;82.50
12309;DHT22;6217;48.150;17.142;2023-08-30T22:02:18;18.80;82.50
12309;DHT22;6217;48.150;17.142;2023-08-30T22:06:23;18.70;82.70
12309;DHT22;6217;48.150;17.142;2023-08-30T22:10:29;18.70;82.80
12309;DHT22;6217;48.150;17.142;2023-08-30T22:14:36;18.70;82.80
12309;DHT22;6217;48.150;17.142;2023-08-30T22:18:42;18.70;82.90
12309;DHT22;6217;48.150;17.142;2023-08-30T22:22:50;18.70;82.90
12309;DHT22;6217;48.150;17.142;2023-08-30T22:26:56;18.70;83.00
12309;DHT22;6217;48.150;17.142;2023-08-30T22:31:02;18.60;83.10
12309;DHT22;6217;48.150;17.142;2023-08-30T22:35:10;18.60;83.00
12309;DHT22;6217;48.150;17.142;2023-08-30T22:39:16;18.60;83.50
12309;DHT22;6217;48.150;17.142;2023-08-30T22:43:22;18.60;83.40
12309;DHT22;6217;48.150;17.142;2023-08-30T22:47:28;18.60;83.50
12309;DHT22;6217;48.150;17.142;2023-08-30T22:51:34;18.60;83.40
12309;DHT22;6217;48.150;17.142;2023-08-30T22:55:42;18.60;83.40
12309;DHT22;6217;48.150;17.142;2023-08-30T22:59:49;18.50;83.20
12309;DHT22;6217;48.150;17.142;2023-08-30T23:03:54;18.50;83.40
12309;DHT22;6217;48.150;17.142;2023-08-30T23:08:03;18.50;83.30
12309;DHT22;6217;48.150;17.142;2023-08-30T23:12:09;18.60;83.40
12309;DHT22;6217;48.150;17.142;2023-08-30T23:16:16;18.60;83.30
12309;DHT22;6217;48.150;17.142;2023-08-30T23:20:22;18.60;83.30
12309;DHT22;6217;48.150;17.142;2023-08-30T23:24:30;18.70;83.40
12309;DHT22;6217;48.150;17.142;2023-08-30T23:28:37;18.70;83.10
12309;DHT22;6217;48.150;17.142;2023-08-30T23:32:42;18.70;83.00
12309;DHT22;6217;48.150;17.142;2023-08-30T23:36:48;18.80;83.20
12309;DHT22;6217;48.150;17.142;2023-08-30T23:40:55;18.80;84.00
12309;DHT22;6217;48.150;17.142;2023-08-30T23:45:01;18.80;83.20
12309;DHT22;6217;48.150;17.142;2023-08-30T23:49:08;18.80;84.00
12309;DHT22;6217;48.150;17.142;2023-08-30T23:53:14;18.90;83.10
12309;DHT22;6217;48.150;17.142;2023-08-30T23:57:21;18.80;83.00
